sensor_id;sensor_type;location;lat;lon;timestamp;P1;durP1;ratioP1;P2;durP2;ratioP2
51228;SDS011;37304;52.216;6.874;2023-04-06T00:03:47;7.07;;;3.60;;
51228;SDS011;37304;52.216;6.874;2023-04-06T00:08:48;8.63;;;3.47;;
51228;SDS011;37304;52.216;6.874;2023-04-06T00:13:48;6.70;;;3.63;;
51228;SDS011;37304;52.216;6.874;2023-04-06T00:18:48;4.70;;;3.27;;
51228;SDS011;37304;52.216;6.874;2023-04-06T00:23:49;6.87;;;3.83;;
51228;SDS011;37304;52.216;6.874;2023-04-06T00:28:49;5.80;;;3.07;;
51228;SDS011;37304;52.216;6.874;2023-04-06T00:33:52;5.63;;;3.25;;
51228;SDS011;37304;52.216;6.874;2023-04-06T00:38:52;5.23;;;3.20;;
51228;SDS011;37304;52.216;6.874;2023-04-06T00:43:53;7.63;;;3.87;;
51228;SDS011;37304;52.216;6.874;2023-04-06T00:48:54;7.28;;;3.92;;
51228;SDS011;37304;52.216;6.874;2023-04-06T00:53:55;8.60;;;3.93;;
51228;SDS011;37304;52.216;6.874;2023-04-06T00:58:55;7.20;;;3.53;;
51228;SDS011;37304;52.216;6.874;2023-04-06T01:03:56;8.23;;;4.00;;
51228;SDS011;37304;52.216;6.874;2023-04-06T01:08:56;9.23;;;3.97;;
51228;SDS011;37304;52.216;6.874;2023-04-06T01:13:56;9.70;;;3.90;;
51228;SDS011;37304;52.216;6.874;2023-04-06T01:18:57;8.03;;;4.30;;
51228;SDS011;37304;52.216;6.874;2023-04-06T01:23:57;6.47;;;3.50;;
51228;SDS011;37304;52.216;6.874;2023-04-06T01:28:58;7.57;;;3.80;;
51228;SDS011;37304;52.216;6.874;2023-04-06T01:33:58;7.03;;;3.40;;
51228;SDS011;37304;52.216;6.874;2023-04-06T01:38:58;6.30;;;3.43;;
51228;SDS011;37304;52.216;6.874;2023-04-06T01:43:59;11.87;;;3.33;;
51228;SDS011;37304;52.216;6.874;2023-04-06T01:48:59;8.60;;;2.70;;
51228;SDS011;37304;52.216;6.874;2023-04-06T01:54:00;5.72;;;3.47;;
51228;SDS011;37304;52.216;6.874;2023-04-06T01:59:00;7.40;;;3.73;;
51228;SDS011;37304;52.216;6.874;2023-04-06T02:04:00;10.70;;;3.57;;
51228;SDS011;37304;52.216;6.874;2023-04-06T02:09:01;9.63;;;4.40;;
51228;SDS011;37304;52.216;6.874;2023-04-06T02:14:01;5.63;;;3.40;;
51228;SDS011;37304;52.216;6.874;2023-04-06T02:19:02;4.07;;;3.07;;
51228;SDS011;37304;52.216;6.874;2023-04-06T02:24:02;6.53;;;3.77;;
51228;SDS011;37304;52.216;6.874;2023-04-06T02:29:02;5.43;;;3.73;;
51228;SDS011;37304;52.216;6.874;2023-04-06T02:34:03;7.13;;;3.67;;
51228;SDS011;37304;52.216;6.874;2023-04-06T02:39:03;6.83;;;3.90;;
51228;SDS011;37304;52.216;6.874;2023-04-06T02:44:03;4.37;;;3.20;;
51228;SDS011;37304;52.216;6.874;2023-04-06T02:49:05;9.57;;;4.28;;
51228;SDS011;37304;52.216;6.874;2023-04-06T02:54:06;9.43;;;4.23;;
51228;SDS011;37304;52.216;6.874;2023-04-06T02:59:06;7.73;;;4.00;;
51228;SDS011;37304;52.216;6.874;2023-04-06T03:04:07;10.77;;;4.43;;
51228;SDS011;37304;52.216;6.874;2023-04-06T03:09:07;9.50;;;3.63;;
51228;SDS011;37304;52.216;6.874;2023-04-06T03:14:07;5.30;;;3.80;;
51228;SDS011;37304;52.216;6.874;2023-04-06T03:19:08;7.67;;;3.77;;
51228;SDS011;37304;52.216;6.874;2023-04-06T03:24:08;5.57;;;3.67;;
51228;SDS011;37304;52.216;6.874;2023-04-06T03:29:09;11.23;;;4.00;;
51228;SDS011;37304;52.216;6.874;2023-04-06T03:34:09;6.40;;;3.30;;
51228;SDS011;37304;52.216;6.874;2023-04-06T03:39:10;7.82;;;4.85;;
51228;SDS011;37304;52.216;6.874;2023-04-06T03:44:10;7.47;;;4.33;;
51228;SDS011;37304;52.216;6.874;2023-04-06T03:49:10;8.20;;;4.20;;
51228;SDS011;37304;52.216;6.874;2023-04-06T03:54:11;7.50;;;3.97;;
51228;SDS011;37304;52.216;6.874;2023-04-06T03:59:11;6.60;;;4.00;;
51228;SDS011;37304;52.216;6.874;2023-04-06T04:04:11;7.10;;;3.93;;
51228;SDS011;37304;52.216;6.874;2023-04-06T04:09:12;6.63;;;3.78;;
51228;SDS011;37304;52.216;6.874;2023-04-06T04:14:13;6.03;;;3.55;;
51228;SDS011;37304;52.216;6.874;2023-04-06T04:19:13;5.07;;;3.83;;
51228;SDS011;37304;52.216;6.874;2023-04-06T04:24:14;6.10;;;3.90;;
51228;SDS011;37304;52.216;6.874;2023-04-06T04:29:14;7.93;;;4.00;;
51228;SDS011;37304;52.216;6.874;2023-04-06T04:34:15;6.03;;;3.78;;
51228;SDS011;37304;52.216;6.874;2023-04-06T04:39:15;22.30;;;5.60;;
51228;SDS011;37304;52.216;6.874;2023-04-06T04:44:16;5.37;;;3.57;;
51228;SDS011;37304;52.216;6.874;2023-04-06T04:49:16;6.70;;;4.17;;
51228;SDS011;37304;52.216;6.874;2023-04-06T04:54:16;8.53;;;4.50;;
51228;SDS011;37304;52.216;6.874;2023-04-06T04:59:17;10.73;;;4.93;;
51228;SDS011;37304;52.216;6.874;2023-04-06T05:04:17;8.87;;;4.50;;
51228;SDS011;37304;52.216;6.874;2023-04-06T05:09:17;8.07;;;4.27;;
51228;SDS011;37304;52.216;6.874;2023-04-06T05:14:18;9.17;;;4.73;;
51228;SDS011;37304;52.216;6.874;2023-04-06T05:19:18;11.17;;;4.63;;
51228;SDS011;37304;52.216;6.874;2023-04-06T05:24:19;8.33;;;4.47;;
51228;SDS011;37304;52.216;6.874;2023-04-06T05:29:19;7.23;;;4.53;;
51228;SDS011;37304;52.216;6.874;2023-04-06T05:34:20;9.25;;;4.50;;
51228;SDS011;37304;52.216;6.874;2023-04-06T05:39:21;6.10;;;4.68;;
51228;SDS011;37304;52.216;6.874;2023-04-06T05:44:21;9.47;;;4.53;;
51228;SDS011;37304;52.216;6.874;2023-04-06T05:49:22;11.85;;;5.28;;
51228;SDS011;37304;52.216;6.874;2023-04-06T05:54:22;9.07;;;4.97;;
51228;SDS011;37304;52.216;6.874;2023-04-06T05:59:25;8.50;;;4.37;;
51228;SDS011;37304;52.216;6.874;2023-04-06T06:04:25;10.38;;;5.30;;
51228;SDS011;37304;52.216;6.874;2023-04-06T06:09:26;11.13;;;5.07;;
51228;SDS011;37304;52.216;6.874;2023-04-06T06:14:26;13.93;;;4.70;;
51228;SDS011;37304;52.216;6.874;2023-04-06T06:19:28;9.90;;;5.20;;
51228;SDS011;37304;52.216;6.874;2023-04-06T06:24:28;11.77;;;5.57;;
51228;SDS011;37304;52.216;6.874;2023-04-06T06:29:29;9.63;;;5.13;;
51228;SDS011;37304;52.216;6.874;2023-04-06T06:34:29;10.77;;;5.85;;
51228;SDS011;37304;52.216;6.874;2023-04-06T06:39:30;14.30;;;6.13;;
51228;SDS011;37304;52.216;6.874;2023-04-06T06:44:30;10.13;;;4.45;;
51228;SDS011;37304;52.216;6.874;2023-04-06T06:49:31;18.40;;;6.00;;
51228;SDS011;37304;52.216;6.874;2023-04-06T06:54:31;8.83;;;5.33;;
51228;SDS011;37304;52.216;6.874;2023-04-06T06:59:31;9.73;;;4.67;;
51228;SDS011;37304;52.216;6.874;2023-04-06T07:04:32;9.53;;;4.90;;
51228;SDS011;37304;52.216;6.874;2023-04-06T07:09:32;10.23;;;5.87;;
51228;SDS011;37304;52.216;6.874;2023-04-06T07:14:33;13.60;;;6.68;;
51228;SDS011;37304;52.216;6.874;2023-04-06T07:19:36;14.23;;;5.37;;
51228;SDS011;37304;52.216;6.874;2023-04-06T07:24:37;11.88;;;5.75;;
51228;SDS011;37304;52.216;6.874;2023-04-06T07:29:44;9.07;;;5.93;;
51228;SDS011;37304;52.216;6.874;2023-04-06T07:34:47;10.20;;;5.13;;
51228;SDS011;37304;52.216;6.874;2023-04-06T07:39:48;13.27;;;5.77;;
51228;SDS011;37304;52.216;6.874;2023-04-06T07:44:48;13.13;;;6.60;;
51228;SDS011;37304;52.216;6.874;2023-04-06T07:49:48;13.87;;;6.50;;
51228;SDS011;37304;52.216;6.874;2023-04-06T07:54:49;11.00;;;6.10;;
51228;SDS011;37304;52.216;6.874;2023-04-06T07:59:49;12.35;;;5.85;;
51228;SDS011;37304;52.216;6.874;2023-04-06T08:04:53;15.98;;;6.55;;
51228;SDS011;37304;52.216;6.874;2023-04-06T08:09:53;12.67;;;6.80;;
51228;SDS011;37304;52.216;6.874;2023-04-06T08:14:53;17.03;;;6.63;;
51228;SDS011;37304;52.216;6.874;2023-04-06T08:19:54;15.00;;;7.03;;
51228;SDS011;37304;52.216;6.874;2023-04-06T08:29:54;14.73;;;7.60;;
51228;SDS011;37304;52.216;6.874;2023-04-06T08:34:55;14.33;;;7.10;;
51228;SDS011;37304;52.216;6.874;2023-04-06T08:39:56;11.07;;;7.27;;
51228;SDS011;37304;52.216;6.874;2023-04-06T08:44:57;14.40;;;8.18;;
51228;SDS011;37304;52.216;6.874;2023-04-06T08:49:59;12.55;;;8.05;;
51228;SDS011;37304;52.216;6.874;2023-04-06T08:55:04;14.75;;;8.32;;
51228;SDS011;37304;52.216;6.874;2023-04-06T09:00:06;17.42;;;8.73;;
51228;SDS011;37304;52.216;6.874;2023-04-06T09:05:09;15.82;;;8.35;;
51228;SDS011;37304;52.216;6.874;2023-04-06T09:10:10;14.70;;;7.93;;
51228;SDS011;37304;52.216;6.874;2023-04-06T09:15:20;15.50;;;8.73;;
51228;SDS011;37304;52.216;6.874;2023-04-06T09:20:22;14.25;;;7.57;;
51228;SDS011;37304;52.216;6.874;2023-04-06T09:25:31;16.55;;;8.90;;
51228;SDS011;37304;52.216;6.874;2023-04-06T09:30:32;15.90;;;7.97;;
51228;SDS011;37304;52.216;6.874;2023-04-06T09:35:32;16.87;;;9.27;;
51228;SDS011;37304;52.216;6.874;2023-04-06T09:40:33;16.77;;;8.60;;
51228;SDS011;37304;52.216;6.874;2023-04-06T09:45:33;19.40;;;9.00;;
51228;SDS011;37304;52.216;6.874;2023-04-06T09:50:34;19.43;;;8.97;;
51228;SDS011;37304;52.216;6.874;2023-04-06T09:55:36;15.93;;;8.60;;
51228;SDS011;37304;52.216;6.874;2023-04-06T10:00:50;17.17;;;8.95;;
51228;SDS011;37304;52.216;6.874;2023-04-06T10:06:04;17.20;;;9.30;;
51228;SDS011;37304;52.216;6.874;2023-04-06T10:11:07;19.67;;;9.88;;
51228;SDS011;37304;52.216;6.874;2023-04-06T10:16:09;20.00;;;9.60;;
51228;SDS011;37304;52.216;6.874;2023-04-06T10:21:11;18.42;;;8.63;;
51228;SDS011;37304;52.216;6.874;2023-04-06T10:26:15;19.05;;;9.50;;
51228;SDS011;37304;52.216;6.874;2023-04-06T10:31:26;19.75;;;9.13;;
51228;SDS011;37304;52.216;6.874;2023-04-06T10:36:31;14.27;;;8.55;;
51228;SDS011;37304;52.216;6.874;2023-04-06T10:41:44;15.73;;;8.93;;
51228;SDS011;37304;52.216;6.874;2023-04-06T10:46:52;17.23;;;9.60;;
51228;SDS011;37304;52.216;6.874;2023-04-06T10:51:55;14.00;;;8.35;;
51228;SDS011;37304;52.216;6.874;2023-04-06T10:56:56;18.92;;;9.45;;
51228;SDS011;37304;52.216;6.874;2023-04-06T11:01:57;17.37;;;9.43;;
51228;SDS011;37304;52.216;6.874;2023-04-06T11:06:57;16.90;;;8.93;;
51228;SDS011;37304;52.216;6.874;2023-04-06T11:11:58;17.30;;;9.48;;
51228;SDS011;37304;52.216;6.874;2023-04-06T11:16:58;19.80;;;9.47;;
51228;SDS011;37304;52.216;6.874;2023-04-06T11:22:05;15.57;;;8.70;;
51228;SDS011;37304;52.216;6.874;2023-04-06T11:27:07;19.13;;;9.20;;
51228;SDS011;37304;52.216;6.874;2023-04-06T11:32:07;20.98;;;10.70;;
51228;SDS011;37304;52.216;6.874;2023-04-06T11:37:09;19.20;;;10.23;;
51228;SDS011;37304;52.216;6.874;2023-04-06T11:42:10;20.25;;;10.27;;
51228;SDS011;37304;52.216;6.874;2023-04-06T11:47:10;18.87;;;9.63;;
51228;SDS011;37304;52.216;6.874;2023-04-06T11:52:15;19.98;;;9.77;;
51228;SDS011;37304;52.216;6.874;2023-04-06T11:57:16;18.77;;;10.63;;
51228;SDS011;37304;52.216;6.874;2023-04-06T12:02:18;18.98;;;9.05;;
51228;SDS011;37304;52.216;6.874;2023-04-06T12:07:18;15.52;;;9.00;;
51228;SDS011;37304;52.216;6.874;2023-04-06T12:12:19;17.52;;;9.60;;
51228;SDS011;37304;52.216;6.874;2023-04-06T12:17:20;17.45;;;9.30;;
51228;SDS011;37304;52.216;6.874;2023-04-06T12:22:20;15.23;;;8.52;;
51228;SDS011;37304;52.216;6.874;2023-04-06T12:27:21;17.65;;;8.77;;
51228;SDS011;37304;52.216;6.874;2023-04-06T12:32:21;17.70;;;9.43;;
51228;SDS011;37304;52.216;6.874;2023-04-06T12:37:21;17.37;;;8.60;;
51228;SDS011;37304;52.216;6.874;2023-04-06T12:42:22;19.77;;;9.63;;
51228;SDS011;37304;52.216;6.874;2023-04-06T12:47:22;21.37;;;8.00;;
51228;SDS011;37304;52.216;6.874;2023-04-06T12:52:23;18.38;;;8.73;;
51228;SDS011;37304;52.216;6.874;2023-04-06T12:57:23;17.63;;;8.53;;
51228;SDS011;37304;52.216;6.874;2023-04-06T13:02:23;26.23;;;11.20;;
51228;SDS011;37304;52.216;6.874;2023-04-06T13:07:24;20.17;;;8.30;;
51228;SDS011;37304;52.216;6.874;2023-04-06T13:12:24;16.90;;;7.70;;
51228;SDS011;37304;52.216;6.874;2023-04-06T13:17:26;19.75;;;8.20;;
51228;SDS011;37304;52.216;6.874;2023-04-06T13:22:27;22.15;;;8.82;;
51228;SDS011;37304;52.216;6.874;2023-04-06T13:27:28;16.97;;;7.77;;
51228;SDS011;37304;52.216;6.874;2023-04-06T13:32:28;20.57;;;8.67;;
51228;SDS011;37304;52.216;6.874;2023-04-06T13:37:29;16.98;;;7.30;;
51228;SDS011;37304;52.216;6.874;2023-04-06T13:42:30;17.33;;;7.17;;
51228;SDS011;37304;52.216;6.874;2023-04-06T13:47:31;16.98;;;7.30;;
51228;SDS011;37304;52.216;6.874;2023-04-06T13:52:31;17.97;;;6.87;;
51228;SDS011;37304;52.216;6.874;2023-04-06T13:57:33;10.90;;;5.80;;
51228;SDS011;37304;52.216;6.874;2023-04-06T14:02:33;11.77;;;5.80;;
51228;SDS011;37304;52.216;6.874;2023-04-06T14:07:34;14.95;;;6.78;;
51228;SDS011;37304;52.216;6.874;2023-04-06T14:12:34;13.63;;;6.47;;
51228;SDS011;37304;52.216;6.874;2023-04-06T14:17:35;11.55;;;5.20;;
51228;SDS011;37304;52.216;6.874;2023-04-06T14:22:36;15.98;;;6.47;;
51228;SDS011;37304;52.216;6.874;2023-04-06T14:27:36;11.23;;;6.20;;
51228;SDS011;37304;52.216;6.874;2023-04-06T14:32:37;12.27;;;5.13;;
51228;SDS011;37304;52.216;6.874;2023-04-06T14:37:37;10.07;;;5.70;;
51228;SDS011;37304;52.216;6.874;2023-04-06T14:42:37;14.93;;;6.27;;
51228;SDS011;37304;52.216;6.874;2023-04-06T14:47:38;11.55;;;6.53;;
51228;SDS011;37304;52.216;6.874;2023-04-06T14:52:38;14.90;;;6.50;;
51228;SDS011;37304;52.216;6.874;2023-04-06T14:57:39;14.65;;;6.53;;
51228;SDS011;37304;52.216;6.874;2023-04-06T15:02:40;18.77;;;7.20;;
51228;SDS011;37304;52.216;6.874;2023-04-06T15:07:42;13.48;;;6.60;;
51228;SDS011;37304;52.216;6.874;2023-04-06T15:12:44;12.93;;;5.70;;
51228;SDS011;37304;52.216;6.874;2023-04-06T15:17:44;14.80;;;6.60;;
51228;SDS011;37304;52.216;6.874;2023-04-06T15:22:47;12.43;;;5.93;;
51228;SDS011;37304;52.216;6.874;2023-04-06T15:27:48;10.07;;;5.33;;
51228;SDS011;37304;52.216;6.874;2023-04-06T15:37:56;10.77;;;5.53;;
51228;SDS011;37304;52.216;6.874;2023-04-06T15:47:57;11.85;;;5.78;;
51228;SDS011;37304;52.216;6.874;2023-04-06T15:52:57;11.97;;;5.53;;
51228;SDS011;37304;52.216;6.874;2023-04-06T15:57:58;11.00;;;5.20;;
51228;SDS011;37304;52.216;6.874;2023-04-06T16:07:58;9.90;;;4.63;;
51228;SDS011;37304;52.216;6.874;2023-04-06T16:17:59;12.60;;;4.78;;
51228;SDS011;37304;52.216;6.874;2023-04-06T16:23:01;11.95;;;4.22;;
51228;SDS011;37304;52.216;6.874;2023-04-06T16:33:03;5.47;;;2.97;;
51228;SDS011;37304;52.216;6.874;2023-04-06T16:38:03;11.77;;;4.80;;
51228;SDS011;37304;52.216;6.874;2023-04-06T16:48:05;9.77;;;4.30;;
51228;SDS011;37304;52.216;6.874;2023-04-06T16:58:06;12.70;;;4.60;;
51228;SDS011;37304;52.216;6.874;2023-04-06T17:03:08;11.20;;;4.70;;
51228;SDS011;37304;52.216;6.874;2023-04-06T17:08:09;10.85;;;5.28;;
51228;SDS011;37304;52.216;6.874;2023-04-06T17:13:09;10.57;;;5.10;;
51228;SDS011;37304;52.216;6.874;2023-04-06T17:18:10;13.33;;;4.93;;
51228;SDS011;37304;52.216;6.874;2023-04-06T17:23:10;9.77;;;5.00;;
51228;SDS011;37304;52.216;6.874;2023-04-06T17:33:11;11.05;;;4.65;;
51228;SDS011;37304;52.216;6.874;2023-04-06T17:38:12;13.32;;;6.50;;
51228;SDS011;37304;52.216;6.874;2023-04-06T17:43:12;12.53;;;5.53;;
51228;SDS011;37304;52.216;6.874;2023-04-06T17:48:13;10.23;;;5.50;;
51228;SDS011;37304;52.216;6.874;2023-04-06T17:53:13;11.67;;;5.70;;
51228;SDS011;37304;52.216;6.874;2023-04-06T17:58:15;12.65;;;5.90;;
51228;SDS011;37304;52.216;6.874;2023-04-06T18:03:16;10.10;;;5.50;;
51228;SDS011;37304;52.216;6.874;2023-04-06T18:08:16;10.93;;;4.40;;
51228;SDS011;37304;52.216;6.874;2023-04-06T18:13:17;10.63;;;4.90;;
51228;SDS011;37304;52.216;6.874;2023-04-06T18:18:19;8.63;;;5.28;;
51228;SDS011;37304;52.216;6.874;2023-04-06T18:23:19;10.40;;;5.35;;
51228;SDS011;37304;52.216;6.874;2023-04-06T18:28:20;14.88;;;5.68;;
51228;SDS011;37304;52.216;6.874;2023-04-06T18:33:26;12.57;;;5.57;;
51228;SDS011;37304;52.216;6.874;2023-04-06T18:38:27;10.02;;;5.47;;
51228;SDS011;37304;52.216;6.874;2023-04-06T18:43:30;8.65;;;5.43;;
51228;SDS011;37304;52.216;6.874;2023-04-06T18:48:36;7.93;;;5.00;;
51228;SDS011;37304;52.216;6.874;2023-04-06T18:53:37;7.47;;;3.97;;
51228;SDS011;37304;52.216;6.874;2023-04-06T18:58:37;7.23;;;4.60;;
51228;SDS011;37304;52.216;6.874;2023-04-06T19:08:53;7.65;;;4.57;;
51228;SDS011;37304;52.216;6.874;2023-04-06T19:13:53;8.45;;;5.15;;
51228;SDS011;37304;52.216;6.874;2023-04-06T19:18:54;7.38;;;4.63;;
51228;SDS011;37304;52.216;6.874;2023-04-06T19:23:59;6.93;;;4.18;;
51228;SDS011;37304;52.216;6.874;2023-04-06T19:29:00;6.00;;;3.78;;
51228;SDS011;37304;52.216;6.874;2023-04-06T19:34:01;7.00;;;4.03;;
51228;SDS011;37304;52.216;6.874;2023-04-06T19:39:01;6.50;;;3.80;;
51228;SDS011;37304;52.216;6.874;2023-04-06T19:44:02;6.32;;;3.70;;
51228;SDS011;37304;52.216;6.874;2023-04-06T19:49:03;6.67;;;3.37;;
51228;SDS011;37304;52.216;6.874;2023-04-06T19:54:04;7.13;;;3.50;;
51228;SDS011;37304;52.216;6.874;2023-04-06T19:59:05;7.22;;;3.65;;
51228;SDS011;37304;52.216;6.874;2023-04-06T20:04:06;7.88;;;3.60;;
51228;SDS011;37304;52.216;6.874;2023-04-06T20:09:06;5.00;;;3.37;;
51228;SDS011;37304;52.216;6.874;2023-04-06T20:14:07;8.53;;;4.13;;
51228;SDS011;37304;52.216;6.874;2023-04-06T20:19:07;6.97;;;3.13;;
51228;SDS011;37304;52.216;6.874;2023-04-06T20:24:08;5.63;;;4.10;;
51228;SDS011;37304;52.216;6.874;2023-04-06T20:29:10;7.97;;;4.47;;
51228;SDS011;37304;52.216;6.874;2023-04-06T20:34:10;8.47;;;4.70;;
51228;SDS011;37304;52.216;6.874;2023-04-06T20:39:11;10.27;;;4.40;;
51228;SDS011;37304;52.216;6.874;2023-04-06T20:44:12;7.65;;;4.35;;
51228;SDS011;37304;52.216;6.874;2023-04-06T20:49:12;8.97;;;4.73;;
51228;SDS011;37304;52.216;6.874;2023-04-06T20:54:13;8.43;;;4.95;;
51228;SDS011;37304;52.216;6.874;2023-04-06T20:59:13;10.07;;;5.43;;
51228;SDS011;37304;52.216;6.874;2023-04-06T21:04:13;7.90;;;4.93;;
51228;SDS011;37304;52.216;6.874;2023-04-06T21:09:17;11.07;;;5.13;;
51228;SDS011;37304;52.216;6.874;2023-04-06T21:14:19;9.18;;;5.53;;
51228;SDS011;37304;52.216;6.874;2023-04-06T21:19:22;8.20;;;5.37;;
51228;SDS011;37304;52.216;6.874;2023-04-06T21:24:24;9.77;;;5.18;;
51228;SDS011;37304;52.216;6.874;2023-04-06T21:29:27;11.80;;;7.18;;
51228;SDS011;37304;52.216;6.874;2023-04-06T21:34:29;11.75;;;5.30;;
51228;SDS011;37304;52.216;6.874;2023-04-06T21:39:29;11.07;;;5.03;;
51228;SDS011;37304;52.216;6.874;2023-04-06T21:44:30;12.53;;;5.90;;
51228;SDS011;37304;52.216;6.874;2023-04-06T21:49:32;9.10;;;5.38;;
51228;SDS011;37304;52.216;6.874;2023-04-06T21:54:37;12.20;;;5.40;;
51228;SDS011;37304;52.216;6.874;2023-04-06T21:59:37;11.10;;;5.80;;
51228;SDS011;37304;52.216;6.874;2023-04-06T22:04:41;9.77;;;5.85;;
51228;SDS011;37304;52.216;6.874;2023-04-06T22:09:41;9.67;;;4.87;;
51228;SDS011;37304;52.216;6.874;2023-04-06T22:14:48;13.60;;;6.53;;
51228;SDS011;37304;52.216;6.874;2023-04-06T22:19:53;11.05;;;5.72;;
51228;SDS011;37304;52.216;6.874;2023-04-06T22:24:54;12.30;;;6.63;;
51228;SDS011;37304;52.216;6.874;2023-04-06T22:29:55;9.13;;;5.50;;
51228;SDS011;37304;52.216;6.874;2023-04-06T22:34:59;12.07;;;5.40;;
51228;SDS011;37304;52.216;6.874;2023-04-06T22:39:59;10.65;;;5.78;;
51228;SDS011;37304;52.216;6.874;2023-04-06T22:45:00;11.27;;;5.60;;
51228;SDS011;37304;52.216;6.874;2023-04-06T22:50:00;10.43;;;6.43;;
51228;SDS011;37304;52.216;6.874;2023-04-06T22:55:07;11.95;;;6.03;;
51228;SDS011;37304;52.216;6.874;2023-04-06T23:00:11;9.55;;;6.10;;
51228;SDS011;37304;52.216;6.874;2023-04-06T23:05:11;14.05;;;6.13;;
51228;SDS011;37304;52.216;6.874;2023-04-06T23:10:12;9.83;;;5.47;;
51228;SDS011;37304;52.216;6.874;2023-04-06T23:15:16;11.75;;;5.68;;
51228;SDS011;37304;52.216;6.874;2023-04-06T23:20:16;10.10;;;5.30;;
51228;SDS011;37304;52.216;6.874;2023-04-06T23:25:17;11.20;;;6.40;;
51228;SDS011;37304;52.216;6.874;2023-04-06T23:30:17;12.97;;;6.87;;
51228;SDS011;37304;52.216;6.874;2023-04-06T23:35:18;9.80;;;5.80;;
51228;SDS011;37304;52.216;6.874;2023-04-06T23:40:21;11.25;;;6.28;;
51228;SDS011;37304;52.216;6.874;2023-04-06T23:45:23;10.38;;;5.97;;
51228;SDS011;37304;52.216;6.874;2023-04-06T23:50:24;11.10;;;6.32;;
51228;SDS011;37304;52.216;6.874;2023-04-06T23:55:25;9.20;;;6.03;;
